sensor_id;sensor_type;location;lat;lon;timestamp;pressure;altitude;pressure_sealevel;temperature;humidity
53868;BME280;41577;47.470;19.080;2023-03-14T00:00:08;99429.25;;;7.60;55.50
53868;BME280;41577;47.470;19.080;2023-03-14T00:00:21;99432.88;;;7.59;55.40
53868;BME280;41577;47.470;19.080;2023-03-14T00:00:35;99426.75;;;7.58;55.41
53868;BME280;41577;47.470;19.080;2023-03-14T00:00:48;99421.44;;;7.58;55.69
53868;BME280;41577;47.470;19.080;2023-03-14T00:01:07;99428.59;;;7.58;55.50
53868;BME280;41577;47.470;19.080;2023-03-14T00:01:21;99428.59;;;7.58;55.58
53868;BME280;41577;47.470;19.080;2023-03-14T00:01:33;99433.06;;;7.57;55.95
53868;BME280;41577;47.470;19.080;2023-03-14T00:01:46;99430.41;;;7.57;55.56
53868;BME280;41577;47.470;19.080;2023-03-14T00:01:59;99428.59;;;7.58;55.97
53868;BME280;41577;47.470;19.080;2023-03-14T00:02:12;99427.16;;;7.55;55.90
53868;BME280;41577;47.470;19.080;2023-03-14T00:02:25;99427.16;;;7.55;55.72
53868;BME280;41577;47.470;19.080;2023-03-14T00:02:38;99428.16;;;7.54;56.02
53868;BME280;41577;47.470;19.080;2023-03-14T00:02:52;99426.31;;;7.54;55.89
53868;BME280;41577;47.470;19.080;2023-03-14T00:03:05;99428.16;;;7.54;55.59
53868;BME280;41577;47.470;19.080;2023-03-14T00:03:17;99420.34;;;7.52;55.92
53868;BME280;41577;47.470;19.080;2023-03-14T00:03:29;99428.31;;;7.52;55.79
53868;BME280;41577;47.470;19.080;2023-03-14T00:03:42;99423.88;;;7.53;55.79
53868;BME280;41577;47.470;19.080;2023-03-14T00:03:55;99425.66;;;7.52;55.77
53868;BME280;41577;47.470;19.080;2023-03-14T00:04:07;99427.50;;;7.52;56.02
53868;BME280;41577;47.470;19.080;2023-03-14T00:04:22;99422.19;;;7.52;55.66
53868;BME280;41577;47.470;19.080;2023-03-14T00:04:34;99427.50;;;7.52;55.77
53868;BME280;41577;47.470;19.080;2023-03-14T00:04:46;99422.41;;;7.50;55.67
53868;BME280;41577;47.470;19.080;2023-03-14T00:04:59;99414.22;;;7.52;56.03
53868;BME280;41577;47.470;19.080;2023-03-14T00:05:12;99418.91;;;7.50;55.89
53868;BME280;41577;47.470;19.080;2023-03-14T00:05:25;99421.56;;;7.50;55.79
53868;BME280;41577;47.470;19.080;2023-03-14T00:05:38;99424.03;;;7.51;55.94
53868;BME280;41577;47.470;19.080;2023-03-14T00:05:51;99425.88;;;7.51;55.96
53868;BME280;41577;47.470;19.080;2023-03-14T00:06:04;99425.06;;;7.50;55.96
53868;BME280;41577;47.470;19.080;2023-03-14T00:06:17;99419.75;;;7.50;56.04
53868;BME280;41577;47.470;19.080;2023-03-14T00:06:31;99427.91;;;7.49;56.38
53868;BME280;41577;47.470;19.080;2023-03-14T00:06:43;99420.13;;;7.47;56.05
53868;BME280;41577;47.470;19.080;2023-03-14T00:06:56;99421.78;;;7.48;56.33
53868;BME280;41577;47.470;19.080;2023-03-14T00:07:10;99424.44;;;7.48;56.29
53868;BME280;41577;47.470;19.080;2023-03-14T00:07:22;99416.66;;;7.47;56.19
53868;BME280;41577;47.470;19.080;2023-03-14T00:07:39;99413.81;;;7.48;56.28
53868;BME280;41577;47.470;19.080;2023-03-14T00:07:55;99420.94;;;7.48;56.16
53868;BME280;41577;47.470;19.080;2023-03-14T00:08:08;99423.59;;;7.48;56.04
53868;BME280;41577;47.470;19.080;2023-03-14T00:08:21;99412.97;;;7.48;56.05
53868;BME280;41577;47.470;19.080;2023-03-14T00:08:35;99422.59;;;7.49;56.14
53868;BME280;41577;47.470;19.080;2023-03-14T00:08:50;99414.63;;;7.49;56.08
53868;BME280;41577;47.470;19.080;2023-03-14T00:09:06;99420.13;;;7.47;55.96
53868;BME280;41577;47.470;19.080;2023-03-14T00:09:20;99417.28;;;7.49;56.06
53868;BME280;41577;47.470;19.080;2023-03-14T00:09:32;99422.41;;;7.50;56.20
53868;BME280;41577;47.470;19.080;2023-03-14T00:09:45;99412.97;;;7.48;56.04
53868;BME280;41577;47.470;19.080;2023-03-14T00:09:57;99419.13;;;7.48;56.20
53868;BME280;41577;47.470;19.080;2023-03-14T00:10:12;99409.50;;;7.47;56.34
53868;BME280;41577;47.470;19.080;2023-03-14T00:10:24;99406.84;;;7.47;55.81
53868;BME280;41577;47.470;19.080;2023-03-14T00:10:37;99414.00;;;7.47;56.36
53868;BME280;41577;47.470;19.080;2023-03-14T00:10:50;99422.59;;;7.49;56.03
53868;BME280;41577;47.470;19.080;2023-03-14T00:11:06;99417.47;;;7.47;56.40
53868;BME280;41577;47.470;19.080;2023-03-14T00:11:20;99411.34;;;7.47;56.41
53868;BME280;41577;47.470;19.080;2023-03-14T00:11:33;99409.06;;;7.44;56.23
53868;BME280;41577;47.470;19.080;2023-03-14T00:11:46;99413.81;;;7.48;56.23
53868;BME280;41577;47.470;19.080;2023-03-14T00:12:01;99412.97;;;7.48;56.45
53868;BME280;41577;47.470;19.080;2023-03-14T00:12:13;99412.78;;;7.49;56.19
53868;BME280;41577;47.470;19.080;2023-03-14T00:12:27;99403.53;;;7.45;56.33
53868;BME280;41577;47.470;19.080;2023-03-14T00:12:39;99407.47;;;7.49;56.22
53868;BME280;41577;47.470;19.080;2023-03-14T00:12:52;99412.78;;;7.49;56.29
53868;BME280;41577;47.470;19.080;2023-03-14T00:13:04;99412.78;;;7.49;56.07
53868;BME280;41577;47.470;19.080;2023-03-14T00:13:17;99409.31;;;7.49;56.03
53868;BME280;41577;47.470;19.080;2023-03-14T00:13:29;99412.97;;;7.48;56.08
53868;BME280;41577;47.470;19.080;2023-03-14T00:13:42;99408.28;;;7.50;55.89
53868;BME280;41577;47.470;19.080;2023-03-14T00:13:55;99398.69;;;7.49;56.12
53868;BME280;41577;47.470;19.080;2023-03-14T00:14:08;99407.47;;;7.49;56.15
53868;BME280;41577;47.470;19.080;2023-03-14T00:14:20;99409.31;;;7.49;56.14
53868;BME280;41577;47.470;19.080;2023-03-14T00:14:33;99397.66;;;7.50;55.90
53868;BME280;41577;47.470;19.080;2023-03-14T00:14:46;99401.53;;;7.47;56.22
53868;BME280;41577;47.470;19.080;2023-03-14T00:14:59;99400.53;;;7.48;56.07
53868;BME280;41577;47.470;19.080;2023-03-14T00:15:12;99398.03;;;7.47;56.06
53868;BME280;41577;47.470;19.080;2023-03-14T00:15:25;99408.28;;;7.50;56.17
53868;BME280;41577;47.470;19.080;2023-03-14T00:15:37;99402.97;;;7.50;56.28
53868;BME280;41577;47.470;19.080;2023-03-14T00:15:49;99404.00;;;7.49;56.15
53868;BME280;41577;47.470;19.080;2023-03-14T00:16:07;99403.81;;;7.50;56.16
53868;BME280;41577;47.470;19.080;2023-03-14T00:16:20;99409.31;;;7.49;56.15
53868;BME280;41577;47.470;19.080;2023-03-14T00:16:33;99407.47;;;7.49;56.05
53868;BME280;41577;47.470;19.080;2023-03-14T00:16:47;99403.34;;;7.47;56.40
53868;BME280;41577;47.470;19.080;2023-03-14T00:17:00;99403.81;;;7.50;56.33
53868;BME280;41577;47.470;19.080;2023-03-14T00:17:13;99405.63;;;7.50;56.34
53868;BME280;41577;47.470;19.080;2023-03-14T00:17:25;99403.19;;;7.48;56.12
53868;BME280;41577;47.470;19.080;2023-03-14T00:17:38;99392.28;;;7.43;56.29
53868;BME280;41577;47.470;19.080;2023-03-14T00:17:50;99399.50;;;7.49;56.44
53868;BME280;41577;47.470;19.080;2023-03-14T00:18:02;99401.34;;;7.49;56.40
53868;BME280;41577;47.470;19.080;2023-03-14T00:18:15;99404.81;;;7.49;56.15
53868;BME280;41577;47.470;19.080;2023-03-14T00:18:28;99394.38;;;7.48;56.40
53868;BME280;41577;47.470;19.080;2023-03-14T00:18:40;99409.50;;;7.47;56.24
53868;BME280;41577;47.470;19.080;2023-03-14T00:18:52;99406.47;;;7.50;56.22
53868;BME280;41577;47.470;19.080;2023-03-14T00:19:05;99403.81;;;7.50;56.43
53868;BME280;41577;47.470;19.080;2023-03-14T00:19:17;99401.34;;;7.49;56.32
53868;BME280;41577;47.470;19.080;2023-03-14T00:19:30;99402.16;;;7.49;56.23
53868;BME280;41577;47.470;19.080;2023-03-14T00:19:42;99401.34;;;7.49;56.43
53868;BME280;41577;47.470;19.080;2023-03-14T00:19:55;99400.31;;;7.50;56.23
53868;BME280;41577;47.470;19.080;2023-03-14T00:20:09;99395.00;;;7.50;56.22
53868;BME280;41577;47.470;19.080;2023-03-14T00:20:22;99397.66;;;7.50;56.61
53868;BME280;41577;47.470;19.080;2023-03-14T00:20:34;99407.28;;;7.51;56.37
53868;BME280;41577;47.470;19.080;2023-03-14T00:20:47;99397.66;;;7.50;56.31
53868;BME280;41577;47.470;19.080;2023-03-14T00:20:59;99391.53;;;7.49;56.37
53868;BME280;41577;47.470;19.080;2023-03-14T00:21:12;99401.16;;;7.50;56.45
53868;BME280;41577;47.470;19.080;2023-03-14T00:21:25;99395.84;;;7.50;56.14
53868;BME280;41577;47.470;19.080;2023-03-14T00:21:37;99396.66;;;7.51;56.43
53868;BME280;41577;47.470;19.080;2023-03-14T00:21:49;99395.84;;;7.50;56.46
53868;BME280;41577;47.470;19.080;2023-03-14T00:22:02;99399.31;;;7.51;56.30
53868;BME280;41577;47.470;19.080;2023-03-14T00:22:14;99390.53;;;7.50;56.37
53868;BME280;41577;47.470;19.080;2023-03-14T00:22:27;99387.25;;;7.48;56.05
53868;BME280;41577;47.470;19.080;2023-03-14T00:22:40;99389.91;;;7.48;56.54
53868;BME280;41577;47.470;19.080;2023-03-14T00:22:53;99386.22;;;7.49;56.21
53868;BME280;41577;47.470;19.080;2023-03-14T00:23:05;99397.47;;;7.51;56.40
53868;BME280;41577;47.470;19.080;2023-03-14T00:23:17;99388.06;;;7.49;56.44
53868;BME280;41577;47.470;19.080;2023-03-14T00:23:32;99392.34;;;7.50;56.18
53868;BME280;41577;47.470;19.080;2023-03-14T00:23:44;99396.66;;;7.51;56.33
53868;BME280;41577;47.470;19.080;2023-03-14T00:23:57;99394.81;;;7.51;56.29
53868;BME280;41577;47.470;19.080;2023-03-14T00:24:10;99389.91;;;7.48;56.13
53868;BME280;41577;47.470;19.080;2023-03-14T00:24:24;99388.06;;;7.49;56.27
53868;BME280;41577;47.470;19.080;2023-03-14T00:24:37;99392.34;;;7.50;56.39
53868;BME280;41577;47.470;19.080;2023-03-14T00:24:51;99393.19;;;7.50;56.28
53868;BME280;41577;47.470;19.080;2023-03-14T00:25:05;99392.16;;;7.51;56.26
53868;BME280;41577;47.470;19.080;2023-03-14T00:25:18;99391.34;;;7.51;56.38
53868;BME280;41577;47.470;19.080;2023-03-14T00:25:33;99388.47;;;7.52;56.63
53868;BME280;41577;47.470;19.080;2023-03-14T00:25:58;99384.81;;;7.53;56.23
53868;BME280;41577;47.470;19.080;2023-03-14T00:26:12;99391.78;;;7.54;56.21
53868;BME280;41577;47.470;19.080;2023-03-14T00:26:26;99389.13;;;7.54;56.33
53868;BME280;41577;47.470;19.080;2023-03-14T00:26:39;99390.13;;;7.53;56.35
53868;BME280;41577;47.470;19.080;2023-03-14T00:26:53;99385.63;;;7.54;56.40
53868;BME280;41577;47.470;19.080;2023-03-14T00:27:07;99382.34;;;7.52;56.08
53868;BME280;41577;47.470;19.080;2023-03-14T00:27:20;99389.13;;;7.54;56.00
53868;BME280;41577;47.470;19.080;2023-03-14T00:27:33;99386.66;;;7.53;56.07
53868;BME280;41577;47.470;19.080;2023-03-14T00:27:46;99382.56;;;7.50;56.27
53868;BME280;41577;47.470;19.080;2023-03-14T00:27:59;99383.81;;;7.54;56.15
53868;BME280;41577;47.470;19.080;2023-03-14T00:28:13;99387.47;;;7.53;56.19
53868;BME280;41577;47.470;19.080;2023-03-14T00:28:25;99382.97;;;7.54;56.33
53868;BME280;41577;47.470;19.080;2023-03-14T00:28:37;99385.63;;;7.54;56.02
53868;BME280;41577;47.470;19.080;2023-03-14T00:28:51;99382.97;;;7.54;56.18
53868;BME280;41577;47.470;19.080;2023-03-14T00:29:15;99389.13;;;7.54;56.34
53868;BME280;41577;47.470;19.080;2023-03-14T00:29:31;99383.81;;;7.54;56.33
53868;BME280;41577;47.470;19.080;2023-03-14T00:29:44;99384.81;;;7.53;56.11
53868;BME280;41577;47.470;19.080;2023-03-14T00:29:57;99381.34;;;7.53;56.36
53868;BME280;41577;47.470;19.080;2023-03-14T00:30:12;99390.13;;;7.53;56.31
53868;BME280;41577;47.470;19.080;2023-03-14T00:30:26;99381.13;;;7.54;56.22
53868;BME280;41577;47.470;19.080;2023-03-14T00:30:41;99388.94;;;7.56;56.36
53868;BME280;41577;47.470;19.080;2023-03-14T00:30:53;99384.44;;;7.57;56.24
53868;BME280;41577;47.470;19.080;2023-03-14T00:31:07;99384.44;;;7.57;55.91
53868;BME280;41577;47.470;19.080;2023-03-14T00:31:22;99380.78;;;7.58;56.03
53868;BME280;41577;47.470;19.080;2023-03-14T00:31:34;99382.59;;;7.57;56.10
53868;BME280;41577;47.470;19.080;2023-03-14T00:31:47;99379.94;;;7.57;55.94
53868;BME280;41577;47.470;19.080;2023-03-14T00:32:00;99381.59;;;7.58;56.11
53868;BME280;41577;47.470;19.080;2023-03-14T00:32:14;99375.25;;;7.59;56.02
53868;BME280;41577;47.470;19.080;2023-03-14T00:32:27;99377.91;;;7.59;56.14
53868;BME280;41577;47.470;19.080;2023-03-14T00:32:40;99387.53;;;7.60;55.86
53868;BME280;41577;47.470;19.080;2023-03-14T00:32:53;99376.09;;;7.60;55.97
53868;BME280;41577;47.470;19.080;2023-03-14T00:33:09;99377.91;;;7.59;56.16
53868;BME280;41577;47.470;19.080;2023-03-14T00:33:22;99370.78;;;7.60;56.08
53868;BME280;41577;47.470;19.080;2023-03-14T00:33:36;99376.91;;;7.60;56.10
53868;BME280;41577;47.470;19.080;2023-03-14T00:33:52;99373.44;;;7.60;55.84
53868;BME280;41577;47.470;19.080;2023-03-14T00:34:05;99372.41;;;7.61;55.88
53868;BME280;41577;47.470;19.080;2023-03-14T00:34:18;99367.09;;;7.61;55.93
53868;BME280;41577;47.470;19.080;2023-03-14T00:34:31;99376.91;;;7.60;55.89
53868;BME280;41577;47.470;19.080;2023-03-14T00:34:45;99371.59;;;7.60;55.72
53868;BME280;41577;47.470;19.080;2023-03-14T00:34:58;99370.56;;;7.61;56.13
53868;BME280;41577;47.470;19.080;2023-03-14T00:35:12;99367.09;;;7.61;56.05
53868;BME280;41577;47.470;19.080;2023-03-14T00:35:24;99373.22;;;7.61;55.96
53868;BME280;41577;47.470;19.080;2023-03-14T00:35:37;99367.09;;;7.61;56.04
53868;BME280;41577;47.470;19.080;2023-03-14T00:35:54;99365.47;;;7.60;55.76
53868;BME280;41577;47.470;19.080;2023-03-14T00:36:08;99368.13;;;7.60;55.93
53868;BME280;41577;47.470;19.080;2023-03-14T00:36:24;99372.22;;;7.62;55.79
53868;BME280;41577;47.470;19.080;2023-03-14T00:36:37;99369.56;;;7.62;56.24
53868;BME280;41577;47.470;19.080;2023-03-14T00:36:54;99367.91;;;7.61;56.24
53868;BME280;41577;47.470;19.080;2023-03-14T00:37:07;99369.56;;;7.62;56.31
53868;BME280;41577;47.470;19.080;2023-03-14T00:37:20;99369.56;;;7.62;56.24
53868;BME280;41577;47.470;19.080;2023-03-14T00:37:32;99364.25;;;7.62;56.28
53868;BME280;41577;47.470;19.080;2023-03-14T00:37:45;99364.25;;;7.62;56.09
53868;BME280;41577;47.470;19.080;2023-03-14T00:37:58;99357.88;;;7.57;56.45
53868;BME280;41577;47.470;19.080;2023-03-14T00:38:10;99363.41;;;7.62;56.43
53868;BME280;41577;47.470;19.080;2023-03-14T00:38:23;99365.25;;;7.61;56.43
53868;BME280;41577;47.470;19.080;2023-03-14T00:38:35;99359.13;;;7.61;56.49
53868;BME280;41577;47.470;19.080;2023-03-14T00:38:50;99374.03;;;7.62;56.02
53868;BME280;41577;47.470;19.080;2023-03-14T00:39:03;99367.09;;;7.61;56.30
53868;BME280;41577;47.470;19.080;2023-03-14T00:39:16;99365.25;;;7.61;56.20
53868;BME280;41577;47.470;19.080;2023-03-14T00:39:29;99360.97;;;7.60;56.38
53868;BME280;41577;47.470;19.080;2023-03-14T00:39:42;99366.06;;;7.62;56.15
53868;BME280;41577;47.470;19.080;2023-03-14T00:39:57;99361.78;;;7.61;55.87
53868;BME280;41577;47.470;19.080;2023-03-14T00:40:11;99368.72;;;7.62;56.09
53868;BME280;41577;47.470;19.080;2023-03-14T00:40:23;99373.22;;;7.61;56.18
53868;BME280;41577;47.470;19.080;2023-03-14T00:40:39;99360.16;;;7.60;56.09
53868;BME280;41577;47.470;19.080;2023-03-14T00:40:52;99361.78;;;7.61;55.99
53868;BME280;41577;47.470;19.080;2023-03-14T00:41:06;99370.56;;;7.61;56.10
53868;BME280;41577;47.470;19.080;2023-03-14T00:41:19;99353.38;;;7.57;56.41
53868;BME280;41577;47.470;19.080;2023-03-14T00:41:32;99359.31;;;7.59;55.72
53868;BME280;41577;47.470;19.080;2023-03-14T00:41:45;99358.31;;;7.60;55.83
53868;BME280;41577;47.470;19.080;2023-03-14T00:41:59;99352.19;;;7.60;55.97
53868;BME280;41577;47.470;19.080;2023-03-14T00:42:14;99360.97;;;7.60;55.97
53868;BME280;41577;47.470;19.080;2023-03-14T00:42:27;99365.25;;;7.61;55.76
53868;BME280;41577;47.470;19.080;2023-03-14T00:42:40;99361.78;;;7.61;56.32
53868;BME280;41577;47.470;19.080;2023-03-14T00:42:54;99356.47;;;7.61;55.99
53868;BME280;41577;47.470;19.080;2023-03-14T00:43:07;99352.78;;;7.62;56.39
53868;BME280;41577;47.470;19.080;2023-03-14T00:43:23;99351.97;;;7.61;55.94
53868;BME280;41577;47.470;19.080;2023-03-14T00:43:39;99346.66;;;7.61;56.04
53868;BME280;41577;47.470;19.080;2023-03-14T00:43:52;99349.31;;;7.61;56.16
53868;BME280;41577;47.470;19.080;2023-03-14T00:44:06;99356.28;;;7.62;56.14
53868;BME280;41577;47.470;19.080;2023-03-14T00:44:20;99357.91;;;7.63;55.83
53868;BME280;41577;47.470;19.080;2023-03-14T00:44:32;99346.47;;;7.63;56.16
53868;BME280;41577;47.470;19.080;2023-03-14T00:44:45;99358.72;;;7.64;55.90
53868;BME280;41577;47.470;19.080;2023-03-14T00:44:58;99347.47;;;7.62;55.95
53868;BME280;41577;47.470;19.080;2023-03-14T00:45:11;99356.94;;;7.64;55.79
53868;BME280;41577;47.470;19.080;2023-03-14T00:45:24;99358.94;;;7.62;55.71
53868;BME280;41577;47.470;19.080;2023-03-14T00:45:37;99359.38;;;7.66;55.96
53868;BME280;41577;47.470;19.080;2023-03-14T00:45:53;99352.41;;;7.65;55.90
53868;BME280;41577;47.470;19.080;2023-03-14T00:46:06;99354.06;;;7.66;55.75
53868;BME280;41577;47.470;19.080;2023-03-14T00:46:18;99358.38;;;7.67;55.72
53868;BME280;41577;47.470;19.080;2023-03-14T00:46:31;99361.84;;;7.67;55.87
53868;BME280;41577;47.470;19.080;2023-03-14T00:46:45;99359.19;;;7.67;55.54
53868;BME280;41577;47.470;19.080;2023-03-14T00:46:59;99357.56;;;7.66;55.79
53868;BME280;41577;47.470;19.080;2023-03-14T00:47:13;99354.69;;;7.68;55.76
53868;BME280;41577;47.470;19.080;2023-03-14T00:47:28;99352.84;;;7.68;55.53
53868;BME280;41577;47.470;19.080;2023-03-14T00:47:44;99365.13;;;7.69;55.49
53868;BME280;41577;47.470;19.080;2023-03-14T00:47:59;99360.81;;;7.68;55.57
53868;BME280;41577;47.470;19.080;2023-03-14T00:48:11;99354.50;;;7.69;55.62
53868;BME280;41577;47.470;19.080;2023-03-14T00:48:23;99352.84;;;7.68;55.81
53868;BME280;41577;47.470;19.080;2023-03-14T00:48:36;99357.97;;;7.70;55.67
53868;BME280;41577;47.470;19.080;2023-03-14T00:48:48;99357.97;;;7.70;55.51
53868;BME280;41577;47.470;19.080;2023-03-14T00:49:01;99354.31;;;7.71;55.42
53868;BME280;41577;47.470;19.080;2023-03-14T00:49:13;99357.78;;;7.71;55.60
53868;BME280;41577;47.470;19.080;2023-03-14T00:49:25;99353.28;;;7.72;55.63
53868;BME280;41577;47.470;19.080;2023-03-14T00:49:38;99352.66;;;7.70;55.51
53868;BME280;41577;47.470;19.080;2023-03-14T00:49:50;99353.47;;;7.70;55.35
53868;BME280;41577;47.470;19.080;2023-03-14T00:50:04;99358.41;;;7.73;55.35
53868;BME280;41577;47.470;19.080;2023-03-14T00:50:16;99354.91;;;7.73;55.42
53868;BME280;41577;47.470;19.080;2023-03-14T00:50:32;99357.56;;;7.73;55.80
53868;BME280;41577;47.470;19.080;2023-03-14T00:50:46;99353.47;;;7.70;55.84
53868;BME280;41577;47.470;19.080;2023-03-14T00:51:00;99357.56;;;7.73;55.48
53868;BME280;41577;47.470;19.080;2023-03-14T00:51:14;99356.56;;;7.74;55.59
53868;BME280;41577;47.470;19.080;2023-03-14T00:51:28;99356.56;;;7.74;55.52
53868;BME280;41577;47.470;19.080;2023-03-14T00:51:41;99353.91;;;7.74;55.44
53868;BME280;41577;47.470;19.080;2023-03-14T00:51:53;99341.22;;;7.69;55.75
53868;BME280;41577;47.470;19.080;2023-03-14T00:52:06;99360.88;;;7.75;55.70
53868;BME280;41577;47.470;19.080;2023-03-14T00:52:19;99357.38;;;7.74;55.41
53868;BME280;41577;47.470;19.080;2023-03-14T00:52:32;99357.38;;;7.74;55.35
53868;BME280;41577;47.470;19.080;2023-03-14T00:52:45;99351.25;;;7.74;55.90
53868;BME280;41577;47.470;19.080;2023-03-14T00:52:59;99354.72;;;7.74;55.67
53868;BME280;41577;47.470;19.080;2023-03-14T00:53:11;99359.06;;;7.75;55.48
53868;BME280;41577;47.470;19.080;2023-03-14T00:53:24;99354.56;;;7.76;55.49
53868;BME280;41577;47.470;19.080;2023-03-14T00:53:37;99351.09;;;7.75;55.30
53868;BME280;41577;47.470;19.080;2023-03-14T00:53:50;99352.72;;;7.77;55.40
53868;BME280;41577;47.470;19.080;2023-03-14T00:54:02;99354.56;;;7.76;55.72
53868;BME280;41577;47.470;19.080;2023-03-14T00:54:17;99353.75;;;7.75;55.46
53868;BME280;41577;47.470;19.080;2023-03-14T00:54:29;99356.19;;;7.77;55.64
53868;BME280;41577;47.470;19.080;2023-03-14T00:54:42;99352.72;;;7.77;55.62
53868;BME280;41577;47.470;19.080;2023-03-14T00:54:54;99353.53;;;7.77;55.57
53868;BME280;41577;47.470;19.080;2023-03-14T00:55:07;99357.00;;;7.78;55.53
53868;BME280;41577;47.470;19.080;2023-03-14T00:55:20;99354.34;;;7.78;55.54
53868;BME280;41577;47.470;19.080;2023-03-14T00:55:36;99356.00;;;7.79;55.50
53868;BME280;41577;47.470;19.080;2023-03-14T00:55:50;99355.19;;;7.78;55.62
53868;BME280;41577;47.470;19.080;2023-03-14T00:56:03;99354.97;;;7.80;55.63
53868;BME280;41577;47.470;19.080;2023-03-14T00:56:15;99349.66;;;7.80;55.51
53868;BME280;41577;47.470;19.080;2023-03-14T00:56:27;99347.22;;;7.78;55.46
53868;BME280;41577;47.470;19.080;2023-03-14T00:56:40;99348.03;;;7.79;55.41
53868;BME280;41577;47.470;19.080;2023-03-14T00:56:53;99350.50;;;7.80;55.25
53868;BME280;41577;47.470;19.080;2023-03-14T00:57:05;99348.66;;;7.81;55.15
53868;BME280;41577;47.470;19.080;2023-03-14T00:57:17;99348.66;;;7.81;55.16
53868;BME280;41577;47.470;19.080;2023-03-14T00:57:30;99348.44;;;7.82;55.39
53868;BME280;41577;47.470;19.080;2023-03-14T00:57:45;99349.47;;;7.81;55.23
53868;BME280;41577;47.470;19.080;2023-03-14T00:57:59;99349.28;;;7.83;55.15
53868;BME280;41577;47.470;19.080;2023-03-14T00:58:14;99341.06;;;7.78;55.19
53868;BME280;41577;47.470;19.080;2023-03-14T00:58:27;99352.13;;;7.81;55.24
53868;BME280;41577;47.470;19.080;2023-03-14T00:58:41;99347.63;;;7.82;55.25
53868;BME280;41577;47.470;19.080;2023-03-14T00:58:54;99344.34;;;7.80;55.44
53868;BME280;41577;47.470;19.080;2023-03-14T00:59:07;99346.63;;;7.83;55.14
53868;BME280;41577;47.470;19.080;2023-03-14T00:59:19;99343.34;;;7.81;55.46
53868;BME280;41577;47.470;19.080;2023-03-14T00:59:33;99340.69;;;7.81;55.68
53868;BME280;41577;47.470;19.080;2023-03-14T00:59:45;99345.78;;;7.82;55.35
53868;BME280;41577;47.470;19.080;2023-03-14T00:59:58;99346.81;;;7.81;55.04
53868;BME280;41577;47.470;19.080;2023-03-14T01:00:13;99346.00;;;7.81;55.29
53868;BME280;41577;47.470;19.080;2023-03-14T01:00:25;99344.16;;;7.81;55.26
53868;BME280;41577;47.470;19.080;2023-03-14T01:00:38;99343.34;;;7.81;55.23
53868;BME280;41577;47.470;19.080;2023-03-14T01:00:51;99340.69;;;7.81;55.65
53868;BME280;41577;47.470;19.080;2023-03-14T01:01:08;99338.84;;;7.81;55.35
53868;BME280;41577;47.470;19.080;2023-03-14T01:01:21;99327.97;;;7.76;55.47
53868;BME280;41577;47.470;19.080;2023-03-14T01:01:34;99343.34;;;7.81;55.56
53868;BME280;41577;47.470;19.080;2023-03-14T01:01:46;99341.69;;;7.80;55.87
53868;BME280;41577;47.470;19.080;2023-03-14T01:01:58;99340.69;;;7.81;55.43
53868;BME280;41577;47.470;19.080;2023-03-14T01:02:11;99339.03;;;7.80;55.51
53868;BME280;41577;47.470;19.080;2023-03-14T01:02:25;99335.56;;;7.79;55.58
53868;BME280;41577;47.470;19.080;2023-03-14T01:02:37;99344.34;;;7.80;55.66
53868;BME280;41577;47.470;19.080;2023-03-14T01:02:50;99339.03;;;7.80;55.66
53868;BME280;41577;47.470;19.080;2023-03-14T01:03:02;99346.00;;;7.81;55.72
53868;BME280;41577;47.470;19.080;2023-03-14T01:03:17;99339.03;;;7.80;55.36
53868;BME280;41577;47.470;19.080;2023-03-14T01:03:30;99337.41;;;7.79;55.38
53868;BME280;41577;47.470;19.080;2023-03-14T01:03:45;99331.06;;;7.80;55.66
53868;BME280;41577;47.470;19.080;2023-03-14T01:04:00;99338.22;;;7.79;55.45
53868;BME280;41577;47.470;19.080;2023-03-14T01:04:13;99336.38;;;7.80;55.32
53868;BME280;41577;47.470;19.080;2023-03-14T01:04:26;99332.06;;;7.79;55.54
53868;BME280;41577;47.470;19.080;2023-03-14T01:04:41;99328.59;;;7.78;55.33
53868;BME280;41577;47.470;19.080;2023-03-14T01:04:54;99338.22;;;7.79;55.57
53868;BME280;41577;47.470;19.080;2023-03-14T01:05:07;99332.91;;;7.79;55.37
53868;BME280;41577;47.470;19.080;2023-03-14T01:05:22;99341.06;;;7.78;55.67
53868;BME280;41577;47.470;19.080;2023-03-14T01:05:34;99336.59;;;7.78;55.65
53868;BME280;41577;47.470;19.080;2023-03-14T01:05:47;99333.72;;;7.80;55.45
53868;BME280;41577;47.470;19.080;2023-03-14T01:06:07;99330.63;;;7.76;55.31
53868;BME280;41577;47.470;19.080;2023-03-14T01:06:21;99333.72;;;7.80;55.63
53868;BME280;41577;47.470;19.080;2023-03-14T01:06:35;99338.03;;;7.81;55.26
53868;BME280;41577;47.470;19.080;2023-03-14T01:06:47;99337.22;;;7.80;55.19
53868;BME280;41577;47.470;19.080;2023-03-14T01:07:00;99335.38;;;7.81;55.24
53868;BME280;41577;47.470;19.080;2023-03-14T01:07:12;99332.91;;;7.79;55.67
53868;BME280;41577;47.470;19.080;2023-03-14T01:07:25;99339.88;;;7.80;55.16
53868;BME280;41577;47.470;19.080;2023-03-14T01:07:37;99334.56;;;7.80;55.34
53868;BME280;41577;47.470;19.080;2023-03-14T01:07:51;99324.75;;;7.81;55.15
53868;BME280;41577;47.470;19.080;2023-03-14T01:08:04;99330.88;;;7.81;55.49
53868;BME280;41577;47.470;19.080;2023-03-14T01:08:18;99331.69;;;7.82;55.29
53868;BME280;41577;47.470;19.080;2023-03-14T01:08:31;99325.56;;;7.81;55.69
53868;BME280;41577;47.470;19.080;2023-03-14T01:08:43;99327.41;;;7.81;55.42
53868;BME280;41577;47.470;19.080;2023-03-14T01:08:57;99322.25;;;7.79;55.55
53868;BME280;41577;47.470;19.080;2023-03-14T01:09:11;99323.47;;;7.77;55.52
53868;BME280;41577;47.470;19.080;2023-03-14T01:09:23;99323.91;;;7.80;55.66
53868;BME280;41577;47.470;19.080;2023-03-14T01:09:36;99324.09;;;7.79;55.80
53868;BME280;41577;47.470;19.080;2023-03-14T01:09:51;99327.56;;;7.79;55.27
53868;BME280;41577;47.470;19.080;2023-03-14T01:10:05;99324.09;;;7.79;55.52
53868;BME280;41577;47.470;19.080;2023-03-14T01:10:18;99331.25;;;7.78;55.39
53868;BME280;41577;47.470;19.080;2023-03-14T01:10:31;99330.41;;;7.78;55.40
53868;BME280;41577;47.470;19.080;2023-03-14T01:10:44;99334.72;;;7.79;55.61
53868;BME280;41577;47.470;19.080;2023-03-14T01:10:56;99332.91;;;7.79;55.51